Latest Weather Observations for Wynyard

IDT60801

Issued at 7:03 pm EDT Sunday 1 March 2015 (issued every 30 minutes, with the page automatically refreshed every 10 minutes)

About weather observations | Map of weather stations | Latest weather observations for TAS | Other Formats
Station Details ID: 091107 Name: WYNYARD AIRPORT Lat: -41.00 Lon: 145.73 Height: 12.0 m
Data from the previous 72 hours. | See also: Recent months at Wynyard
Date/Time
EDT
Temp
°C
App
Temp
°C
Dew
Point
Rel
Hum
%
Delta-T
°C
Wind Press
QNH
hPa
Press
MSL
hPa
Rain
since 9 am
mm
Dir
 
Spd
km/h
Gust
km/h
Spd
kts
Gust
kts
01/07:00pm 16.0 11.0 6.4 53 4.7 SSW 22 32 12 17 1015.0 1015.0 0.0
01/06:30pm 16.7 12.2 6.8 52 4.9 SSW 20 32 11 17 1014.7 1014.7 0.0
01/05:30pm 18.6 12.7 7.7 49 5.5 SW 28 41 15 22 1013.5 1013.5 0.0
01/05:05pm 18.9 13.4 7.4 47 5.8 SW 26 48 14 26 1013.2 1013.2 0.0
01/05:00pm 19.2 14.7 8.5 50 5.6 SSW 22 39 12 21 1013.1 1013.1 0.0
01/04:30pm 19.3 13.9 9.5 53 5.2 SW 28 37 15 20 1012.8 1012.8 0.0
01/04:10pm 19.3 13.9 9.5 53 5.2 SSW 28 46 15 25 1012.6 1012.6 0.0
01/04:00pm 19.4 13.6 9.3 52 5.3 SSW 30 41 16 22 1012.4 1012.4 0.0
01/03:30pm 19.5 13.7 9.4 52 5.3 SW 30 39 16 21 1011.9 1011.9 0.0
01/03:00pm 19.2 13.5 8.5 50 5.6 SSW 28 39 15 21 1011.6 1011.6 0.0
01/02:30pm 19.3 14.8 10.0 55 5.0 SSW 24 32 13 17 1011.6 1011.6 0.0
01/02:00pm 19.2 14.7 9.9 55 5.0 SW 24 33 13 18 1011.2 1011.2 0.0
01/01:30pm 18.7 13.8 8.4 51 5.3 SW 24 39 13 21 1011.0 1011.0 0.0
01/01:00pm 19.4 14.3 9.3 52 5.3 WSW 26 44 14 24 1010.7 1010.7 0.0
01/12:30pm 18.5 13.0 9.0 54 5.0 SW 28 46 15 25 1010.8 1010.8 0.0
01/12:29pm 18.9 13.6 9.7 55 4.9 SW 28 46 15 25 1010.7 1010.7 0.0
01/12:24pm 18.4 13.7 9.2 55 4.8 SW 24 46 13 25 1010.7 1010.7 0.0
01/12:05pm 18.6 12.2 9.4 55 4.8 SW 33 48 18 26 1010.5 1010.5 0.0
01/12:00pm 18.7 12.6 9.8 56 4.7 SW 32 44 17 24 1010.6 1010.6 0.0
01/11:46am 17.0 9.7 8.9 59 4.2 SW 37 48 20 26 1010.3 1010.3 0.0
01/11:00am 18.2 14.0 9.8 58 4.5 WSW 22 35 12 19 1009.6 1009.6 0.0
01/10:30am 17.4 12.2 10.1 62 3.9 SW 28 43 15 23 1009.2 1009.2 0.0
01/10:03am 15.7 9.1 8.7 63 3.6 SW 33 52 18 28 1008.8 1008.8 0.0
01/09:56am 16.7 11.9 10.3 66 3.4 WSW 26 44 14 24 1008.7 1008.7 0.0
01/09:30am 16.2 13.2 10.5 69 3.0 SW 17 24 9 13 1008.2 1008.2 0.0
01/09:00am 15.2 12.4 11.2 77 2.1 WSW 17 24 9 13 1007.8 1007.8 6.8
01/08:30am 14.1 12.0 11.1 82 1.6 WSW 13 19 7 10 1007.4 1007.4 6.8
01/08:00am 13.1 10.6 11.2 88 1.0 W 15 20 8 11 1006.9 1006.9 6.8
01/07:30am 12.2 9.6 10.8 91 0.7 W 15 22 8 12 1006.4 1006.4 6.8
01/07:00am 11.6 7.9 10.3 92 0.7 W 20 26 11 14 1005.8 1005.8 6.8
01/06:30am 11.9 7.9 10.6 92 0.7 WSW 22 30 12 16 1005.1 1005.1 6.8
01/05:30am 12.5 8.5 10.4 87 1.1 WSW 22 30 12 16 1003.8 1003.8 6.6
01/05:00am 12.2 9.0 10.1 87 1.1 WSW 17 22 9 12 1003.6 1003.6 6.6
01/04:30am 12.0 10.0 10.1 88 1.0 WNW 11 15 6 8 1003.4 1003.4 6.6
01/04:00am 12.4 10.2 10.8 90 0.8 WSW 13 20 7 11 1003.3 1003.3 6.6
01/03:30am 12.6 9.8 11.3 92 0.7 W 17 20 9 11 1003.3 1003.3 6.6
01/03:00am 12.7 10.0 11.8 94 0.5 WNW 17 20 9 11 1003.3 1003.3 6.6
01/02:30am 12.8 10.2 12.0 95 0.4 W 17 20 9 11 1003.2 1003.2 6.6
01/02:00am 12.6 10.7 11.8 95 0.4 W 13 17 7 9 1003.2 1003.2 6.6
01/01:30am 13.4 11.2 12.1 92 0.7 WSW 15 20 8 11 1003.2 1003.2 6.6
01/01:00am 13.8 11.0 12.5 92 0.7 WSW 19 24 10 13 1003.0 1003.0 6.6
01/12:30am 14.2 11.5 13.4 95 0.4 WSW 20 30 11 16 1002.8 1002.8 6.6
 
Date/Time
EDT
Temp
°C
App
Temp
°C
Dew
Point
Rel
Hum
%
Delta-T
°C
Wind Press
QNH
hPa
Press
MSL
hPa
Rain
since 9 am
mm
Dir
 
Spd
km/h
Gust
km/h
Spd
kts
Gust
kts
28/11:30pm 15.3 13.5 14.5 95 0.5 W 17 24 9 13 1002.8 1002.8 6.6
28/11:00pm 16.0 14.4 15.0 94 0.6 WSW 17 24 9 13 1002.7 1002.7 6.6
28/10:30pm 16.9 13.5 15.8 93 0.6 W 28 37 15 20 1002.7 1002.7 6.6
28/10:00pm 17.3 16.5 17.1 99 0.1 W 17 24 9 13 1002.2 1002.2 6.6
28/09:30pm 17.8 17.2 17.6 99 0.1 WNW 17 19 9 10 1002.0 1002.0 6.6
28/09:00pm 18.0 18.3 18.0 100 0.0 WNW 13 19 7 10 1001.5 1001.5 6.6
28/08:33pm 17.9 18.2 17.9 100 0.0 WNW 13 17 7 9 1000.7 1000.7 6.6
28/08:30pm 18.0 18.3 18.0 100 0.0 WNW 13 17 7 9 1000.8 1000.8 6.6
28/08:21pm 18.0 19.5 18.0 100 0.0 WNW 7 11 4 6 1000.6 1000.6 6.6
28/08:00pm 18.0 20.8 18.0 100 0.0 CALM 0 0 0 0 1000.3 1000.3 6.6
28/07:41pm 18.0 20.8 18.0 100 0.0 CALM 0 0 0 0 1000.3 1000.3 6.6
28/07:30pm 18.0 20.8 18.0 100 0.0 CALM 0 6 0 3 1000.5 1000.5 6.6
28/07:27pm 18.0 20.4 18.0 100 0.0 SSE 2 7 1 4 1000.6 1000.6 6.6
28/07:00pm 18.1 20.9 17.9 99 0.1 CALM 0 0 0 0 1000.9 1000.9 5.8
28/06:59pm 18.2 21.0 18.0 99 0.1 CALM 0 0 0 0 1000.9 1000.9 5.8
28/06:44pm 18.1 20.1 17.9 99 0.1 NE 4 9 2 5 1000.2 1000.2 5.6
28/06:30pm 18.1 19.5 17.9 99 0.1 NNE 7 9 4 5 1000.3 1000.3 5.4
28/06:12pm 18.1 19.2 17.9 99 0.1 NE 9 11 5 6 1000.6 1000.6 5.4
28/06:00pm 18.1 19.2 17.9 99 0.1 NE 9 13 5 7 1000.6 1000.6 5.4
28/05:30pm 18.8 21.4 18.3 97 0.3 ESE 2 7 1 4 1000.9 1000.9 5.4
28/05:00pm 18.0 19.8 17.5 97 0.3 ENE 4 9 2 5 1001.2 1001.2 5.4
28/04:38pm 17.9 19.8 17.7 99 0.1 SSE 4 7 2 4 1001.6 1001.6 5.4
28/04:34pm 18.3 20.4 18.1 99 0.1 SSE 4 7 2 4 1001.5 1001.5 5.4
28/04:30pm 18.0 20.0 17.8 99 0.1 SE 4 7 2 4 1001.4 1001.4 5.4
28/04:00pm 16.9 19.3 16.9 100 0.0 CALM 0 0 0 0 1002.1 1002.1 5.2
28/03:59pm 17.0 19.4 17.0 100 0.0 CALM 0 0 0 0 1002.0 1002.0 5.2
28/03:58pm 16.9 19.3 16.9 100 0.0 CALM 0 0 0 0 1002.0 1002.0 5.2
28/03:30pm 16.5 17.4 16.5 100 0.0 SSW 7 11 4 6 1002.4 1002.4 5.0
28/03:17pm 16.1 16.8 16.1 100 0.0 SSW 7 11 4 6 1002.6 1002.6 5.0
28/03:00pm 15.8 16.0 15.8 100 0.0 S 9 15 5 8 1002.6 1002.6 5.0
28/02:30pm 15.7 15.5 15.7 100 0.0 ESE 11 17 6 9 1002.9 1002.9 4.2
28/02:17pm 15.7 15.4 15.5 99 0.1 ESE 11 15 6 8 1003.2 1003.2 3.8
28/02:12pm 15.8 15.6 15.6 99 0.1 ESE 11 15 6 8 1003.3 1003.3 3.8
28/02:00pm 15.8 15.9 15.6 99 0.1 ESE 9 15 5 8 1003.4 1003.4 3.4
28/01:30pm 16.0 16.2 15.7 98 0.2 NE 9 13 5 7 1004.0 1004.0 1.4
28/01:22pm 16.0 16.1 15.5 97 0.3 NE 9 15 5 8 1004.1 1004.1 1.0
28/01:13pm 16.1 15.7 15.1 94 0.6 NE 11 15 6 8 1004.1 1004.1 0.4
28/01:00pm 16.3 16.2 15.0 92 0.8 NE 9 13 5 7 1004.3 1004.3 0.2
28/12:30pm 16.9 16.7 14.7 87 1.3 NE 9 15 5 8 1004.8 1004.8 0.0
28/12:00pm 17.0 16.0 13.3 79 2.1 NNE 11 15 6 8 1005.1 1005.1 0.0
28/11:30am 17.0 15.8 12.9 77 2.3 NNE 11 19 6 10 1005.5 1005.5 0.0
28/11:00am 16.9 15.1 12.2 74 2.6 NNE 13 19 7 10 1005.8 1005.8 0.0
28/10:30am 16.7 15.6 12.0 74 2.6 NE 9 15 5 8 1006.0 1006.0 0.0
28/10:00am 16.7 14.7 11.6 72 2.8 NE 13 20 7 11 1006.1 1006.1 0.0
28/09:30am 16.9 14.9 11.4 70 3.0 NE 13 19 7 10 1006.2 1006.2 0.0
28/09:00am 16.2 14.0 10.7 70 2.9 NE 13 19 7 10 1006.4 1006.4 0.0
28/08:30am 16.2 14.2 11.4 73 2.6 NE 13 19 7 10 1006.1 1006.1 0.0
28/08:00am 16.2 13.9 11.8 75 2.4 NE 15 20 8 11 1006.3 1006.3 0.0
28/07:30am 15.9 14.6 12.5 80 1.9 NE 11 17 6 9 1006.2 1006.2 0.0
28/07:27am 15.9 14.6 12.5 80 1.9 NE 11 17 6 9 1006.2 1006.2 0.0
28/07:15am 15.7 13.9 13.2 85 1.4 NE 15 24 8 13 1006.2 1006.2 0.0
28/07:00am 15.8 14.4 13.3 85 1.4 NE 13 20 7 11 1006.3 1006.3 0.0
28/06:30am 15.6 14.0 12.7 83 1.6 NNE 13 20 7 11 1006.0 1006.0 0.0
28/06:00am 15.4 13.3 12.3 82 1.7 NNE 15 22 8 12 1006.1 1006.1 0.0
28/05:30am 13.4 12.7 13.2 99 0.1 NE 9 20 5 11 1006.6 1006.6 0.0
28/05:00am 9.4 8.8 8.8 96 0.3 WSW 2 7 1 4 1006.6 1006.6 0.0
28/04:30am 9.0 6.8 7.9 93 0.5 W 9 11 5 6 1006.9 1006.9 0.0
28/04:00am 8.4 5.7 7.5 94 0.4 W 11 13 6 7 1007.1 1007.1 0.0
28/03:30am 9.6 7.8 7.9 89 0.8 WNW 7 9 4 5 1007.3 1007.3 0.0
28/03:00am 9.4 7.2 8.0 91 0.7 W 9 9 5 5 1007.8 1007.8 0.0
28/02:30am 9.4 7.1 7.5 88 0.9 WSW 9 9 5 5 1008.0 1008.0 0.0
28/02:00am 11.5 8.7 8.4 81 1.5 WNW 13 13 7 7 1008.6 1008.6 0.0
28/01:30am 11.7 8.9 8.4 80 1.6 NW 13 17 7 9 1008.5 1008.5 0.0
28/01:00am 10.4 8.3 8.3 87 1.0 WNW 9 15 5 8 1008.6 1008.6 0.0
28/12:30am 11.4 8.1 8.1 80 1.6 WNW 15 17 8 9 1008.8 1008.8 0.0
28/12:00am 12.0 9.0 7.9 76 2.0 WNW 13 15 7 8 1008.8 1008.8 0.0
 
Date/Time
EDT
Temp
°C
App
Temp
°C
Dew
Point
Rel
Hum
%
Delta-T
°C
Wind Press
QNH
hPa
Press
MSL
hPa
Rain
since 9 am
mm
Dir
 
Spd
km/h
Gust
km/h
Spd
kts
Gust
kts
27/11:30pm 12.6 10.1 8.1 74 2.2 WNW 11 13 6 7 1009.0 1009.0 0.0
27/11:00pm 11.0 7.9 7.3 78 1.8 WSW 13 19 7 10 1009.1 1009.1 0.0
27/10:30pm 12.1 8.4 8.0 76 2.0 WNW 17 19 9 10 1009.5 1009.5 0.0
27/10:00pm 12.7 9.7 7.8 72 2.4 W 13 17 7 9 1009.2 1009.2 0.0
27/09:30pm 12.8 9.5 7.9 72 2.4 WNW 15 17 8 9 1009.4 1009.4 0.0
27/09:00pm 13.1 9.8 8.0 71 2.5 W 15 19 8 10 1009.3 1009.3 0.0
27/08:30pm 13.6 10.9 7.4 66 3.0 W 11 15 6 8 1009.0 1009.0 0.0
27/08:00pm 15.9 12.2 7.9 59 4.0 WSW 17 24 9 13 1008.7 1008.7 0.0
27/07:30pm 16.9 12.8 7.8 55 4.6 WSW 19 28 10 15 1008.2 1008.2 0.0
27/07:00pm 17.9 14.2 7.9 52 5.1 SSW 17 22 9 12 1007.6 1007.6 0.0
27/06:30pm 18.8 14.7 8.5 51 5.3 SSW 20 32 11 17 1008.0 1008.0 0.0
27/06:00pm 19.5 16.2 7.9 47 6.0 SSW 15 24 8 13 1007.8 1007.8 0.0
27/05:30pm 19.5 15.5 9.1 51 5.5 WSW 20 28 11 15 1007.7 1007.7 0.0
27/05:00pm 20.7 15.7 9.6 49 5.9 W 26 37 14 20 1007.8 1007.8 0.0
27/04:30pm 19.6 14.4 8.9 50 5.6 W 26 33 14 18 1008.0 1008.0 0.0
27/04:00pm 19.6 14.0 8.6 49 5.7 W 28 33 15 18 1007.9 1007.9 0.0
27/03:30pm 21.2 16.3 8.5 44 6.7 W 24 35 13 19 1007.8 1007.8 0.0
27/03:00pm 21.6 16.7 9.8 47 6.4 WSW 26 37 14 20 1008.0 1008.0 0.0
27/02:30pm 20.0 14.8 9.0 49 5.8 W 26 32 14 17 1008.2 1008.2 0.0
27/02:00pm 21.1 16.8 9.4 47 6.3 W 22 30 12 16 1008.2 1008.2 0.0
27/01:30pm 21.6 17.6 9.2 45 6.6 WSW 20 33 11 18 1008.3 1008.3 0.0
27/01:00pm 20.4 16.6 9.0 48 6.0 WSW 19 32 10 17 1008.5 1008.5 0.0
27/12:30pm 19.5 16.3 10.0 54 5.1 WSW 17 30 9 16 1008.4 1008.4 0.0
27/12:00pm 19.3 15.9 10.6 57 4.7 NW 19 30 10 16 1009.2 1009.2 0.0
27/11:30am 18.1 15.7 11.4 65 3.7 NNE 15 19 8 10 1009.4 1009.4 0.0
27/11:00am 18.5 16.7 12.0 66 3.6 NNE 13 19 7 10 1009.1 1009.1 0.0
27/10:30am 17.1 16.3 11.6 70 3.0 E 7 11 4 6 1009.5 1009.5 0.0
27/10:00am 16.2 16.5 12.2 77 2.2 NE 2 6 1 3 1009.6 1009.6 0.0
27/09:30am 14.6 13.9 11.9 84 1.5 N 7 11 4 6 1009.7 1009.7 0.0
27/09:00am 13.0 11.4 11.6 91 0.7 WNW 11 15 6 8 1009.8 1009.8 0.2
27/08:30am 11.2 8.9 10.4 95 0.4 WNW 13 17 7 9 1009.6 1009.6 0.2
27/08:17am 10.6 8.5 9.8 95 0.4 NW 11 15 6 8 1009.4 1009.4 0.2
27/08:00am 10.4 7.9 9.8 96 0.3 NW 13 19 7 10 1009.5 1009.5 0.2
27/07:30am 10.4 10.1 10.1 98 0.2 NW 2 11 1 6 1009.0 1009.0 0.2
27/07:00am 10.2 8.5 10.0 99 0.1 WNW 9 13 5 7 1009.1 1009.1 0.2
27/06:30am 9.5 7.7 9.4 99 0.0 WNW 9 13 5 7 1009.0 1009.0 0.2
27/06:00am 9.0 7.6 8.9 99 0.0 SW 6 9 3 5 1009.3 1009.3 0.2
27/05:30am 9.3 6.7 9.2 99 0.0 WNW 13 15 7 8 1009.6 1009.6 0.2
27/05:29am 9.3 6.7 9.2 99 0.0 WNW 13 15 7 8 1009.6 1009.6 0.2
27/05:00am 8.6 5.8 8.5 99 0.0 WNW 13 15 7 8 1009.3 1009.3 0.2
27/04:30am 7.8 6.1 7.7 99 0.0 W 6 7 3 4 1009.4 1009.4 0.2
27/04:00am 8.1 5.6 8.0 99 0.0 W 11 13 6 7 1009.5 1009.5 0.2
27/03:55am 8.2 5.7 8.1 99 0.0 W 11 13 6 7 1009.5 1009.5 0.2
27/03:37am 8.5 6.8 8.4 99 0.0 WSW 7 9 4 5 1009.4 1009.4 0.2
27/03:30am 8.2 6.4 8.1 99 0.0 WSW 7 9 4 5 1009.3 1009.3 0.2
27/03:00am 10.5 9.9 10.3 99 0.1 WNW 4 7 2 4 1009.4 1009.4 0.2
27/02:30am 10.0 8.3 9.9 99 0.1 WNW 9 11 5 6 1009.5 1009.5 0.2
27/02:00am 10.5 8.2 10.3 99 0.1 WNW 13 15 7 8 1009.5 1009.5 0.2
27/01:30am 11.4 9.1 10.6 95 0.4 W 13 15 7 8 1009.8 1009.8 0.2
27/01:00am 12.3 10.8 11.8 97 0.3 WNW 11 13 6 7 1009.9 1009.9 0.2
27/12:30am 12.4 11.9 12.1 98 0.2 W 6 11 3 6 1009.7 1009.7 0.2
27/12:00am 12.5 10.6 11.7 95 0.4 W 13 17 7 9 1009.6 1009.6 0.2
 
Date/Time
EDT
Temp
°C
App
Temp
°C
Dew
Point
Rel
Hum
%
Delta-T
°C
Wind Press
QNH
hPa
Press
MSL
hPa
Rain
since 9 am
mm
Dir
 
Spd
km/h
Gust
km/h
Spd
kts
Gust
kts
26/11:30pm 13.2 11.9 11.4 89 1.0 W 9 11 5 6 1009.8 1009.8 0.2
26/11:00pm 13.8 12.3 11.8 88 1.1 WNW 11 15 6 8 1010.1 1010.1 0.2
26/10:30pm 14.8 13.0 12.1 84 1.5 WNW 13 15 7 8 1009.9 1009.9 0.2
26/10:00pm 15.2 14.5 12.0 81 1.7 W 7 9 4 5 1009.6 1009.6 0.2
26/09:30pm 16.5 15.8 12.1 75 2.4 W 7 9 4 5 1009.5 1009.5 0.2
26/09:00pm 16.7 15.3 12.3 75 2.4 SW 11 15 6 8 1009.3 1009.3 0.2
26/08:30pm 17.8 15.7 12.3 70 3.0 SW 15 20 8 11 1008.8 1008.8 0.2
26/08:00pm 19.0 16.9 12.5 66 3.6 SW 15 20 8 11 1008.4 1008.4 0.2
26/07:30pm 20.4 18.0 12.6 61 4.4 SSW 17 22 9 12 1007.9 1007.9 0.2

Other Formats:

Comma delimited format used in spreadsheet applications
http://www.bom.gov.au/fwo/IDT60801/IDT60801.95957.axf

JavaScript Object Notation format (JSON) in row-major order
http://www.bom.gov.au/fwo/IDT60801/IDT60801.95957.json